createdAt,value
2023-05-05T00:00:55.957Z,100979.55
2023-05-05T00:03:25.573Z,100974.23
2023-05-05T00:05:54.875Z,100972.83
2023-05-05T00:08:24.048Z,100975.95
2023-05-05T00:10:53.407Z,100975.38
2023-05-05T00:13:22.399Z,100976.58
2023-05-05T00:15:52.703Z,100975.64
2023-05-05T00:18:21.575Z,100973.02
2023-05-05T00:20:50.123Z,100973.41
2023-05-05T00:23:20.634Z,100971.40
2023-05-05T00:25:49.290Z,100971.34
2023-05-05T00:28:17.757Z,100975.36
2023-05-05T00:30:46.273Z,100973.47
2023-05-05T00:33:14.706Z,100970.00
2023-05-05T00:35:43.319Z,100970.88
2023-05-05T00:38:11.796Z,100968.63
2023-05-05T00:40:42.904Z,100967.98
2023-05-05T00:43:11.314Z,100969.69
2023-05-05T00:45:43.359Z,100972.05
2023-05-05T00:48:11.890Z,100970.06
2023-05-05T00:50:42.648Z,100966.48
2023-05-05T00:53:10.875Z,100967.88
2023-05-05T00:55:39.280Z,100965.53
2023-05-05T00:58:08.211Z,100967.71
2023-05-05T01:00:36.542Z,100970.83
2023-05-05T01:03:05.750Z,100970.95
2023-05-05T01:05:48.804Z,100975.88
2023-05-05T01:08:49.665Z,100973.21
2023-05-05T01:11:23.025Z,100974.23
2023-05-05T01:14:25.348Z,100972.04
2023-05-05T01:16:59.411Z,100969.76
2023-05-05T01:19:48.985Z,100964.99
2023-05-05T01:22:21.110Z,100963.73
2023-05-05T01:25:01.658Z,100961.61
2023-05-05T01:27:50.146Z,100960.02
2023-05-05T01:30:43.396Z,100958.42
2023-05-05T01:33:15.913Z,100960.23
2023-05-05T01:35:48.708Z,100957.92
2023-05-05T01:38:22.011Z,100960.08
2023-05-05T01:41:05.419Z,100954.85
2023-05-05T01:43:36.064Z,100950.11
2023-05-05T01:46:06.648Z,100950.45
2023-05-05T01:48:35.398Z,100946.86
2023-05-05T01:51:05.622Z,100948.98
2023-05-05T01:53:35.748Z,100946.26
2023-05-05T01:56:05.386Z,100942.48
2023-05-05T01:58:34.932Z,100944.52
2023-05-05T02:01:04.862Z,100939.83
2023-05-05T02:03:35.295Z,100942.23
2023-05-05T02:06:05.093Z,100942.61
2023-05-05T02:08:37.246Z,100941.92
2023-05-05T02:11:05.905Z,100943.69
2023-05-05T02:13:35.642Z,100945.70
2023-05-05T02:16:06.626Z,100938.20
2023-05-05T02:18:37.104Z,100944.75
2023-05-05T02:21:05.778Z,100943.89
2023-05-05T02:23:34.514Z,100938.64
2023-05-05T02:26:08.374Z,100935.15
2023-05-05T02:28:43.068Z,100935.37
2023-05-05T02:31:14.240Z,100939.45
2023-05-05T02:33:44.722Z,100931.70
2023-05-05T02:36:19.901Z,100930.48
2023-05-05T02:38:53.696Z,100934.59
2023-05-05T02:41:23.670Z,100931.73
2023-05-05T02:43:55.098Z,100929.92
2023-05-05T02:46:23.475Z,100933.61
2023-05-05T02:48:51.931Z,100937.58
2023-05-05T02:51:20.289Z,100933.27
2023-05-05T02:53:48.741Z,100932.77
2023-05-05T02:56:31.981Z,100929.23
2023-05-05T02:59:05.147Z,100925.85
2023-05-05T03:01:52.419Z,100919.67
2023-05-05T03:04:29.695Z,100921.77
2023-05-05T03:07:04.383Z,100917.16
2023-05-05T03:10:05.451Z,100923.35
2023-05-05T03:12:43.037Z,100920.94
2023-05-05T03:15:12.850Z,100919.67
2023-05-05T03:17:44.032Z,100917.77
2023-05-05T03:20:13.980Z,100919.63
2023-05-05T03:22:42.356Z,100917.05
2023-05-05T03:25:10.741Z,100913.98
2023-05-05T03:27:39.092Z,100919.39
2023-05-05T03:30:08.319Z,100920.70
2023-05-05T03:32:37.258Z,100921.39
2023-05-05T03:35:06.111Z,100919.60
2023-05-05T03:37:34.571Z,100918.59
2023-05-05T03:40:02.886Z,100918.09
2023-05-05T03:42:31.222Z,100918.69
2023-05-05T03:44:59.512Z,100920.41
2023-05-05T03:47:27.874Z,100919.59
2023-05-05T03:49:56.774Z,100918.80
2023-05-05T03:52:25.215Z,100915.50
2023-05-05T03:54:54.523Z,100913.60
2023-05-05T03:57:22.818Z,100914.09
2023-05-05T03:59:51.171Z,100914.91
2023-05-05T04:02:19.733Z,100919.36
2023-05-05T04:04:48.063Z,100918.48
2023-05-05T04:07:16.378Z,100918.96
2023-05-05T04:09:45.380Z,100921.99
2023-05-05T04:12:14.086Z,100924.52
2023-05-05T04:14:42.395Z,100920.62
2023-05-05T04:17:10.785Z,100917.61
2023-05-05T04:19:39.125Z,100918.91
2023-05-05T04:22:07.385Z,100922.73
2023-05-05T04:24:35.890Z,100923.67
2023-05-05T04:27:04.276Z,100924.04
2023-05-05T04:29:32.657Z,100926.19
2023-05-05T04:32:01.722Z,100927.05
2023-05-05T04:34:30.036Z,100931.74
2023-05-05T04:36:58.479Z,100934.55
2023-05-05T04:39:26.775Z,100936.70
2023-05-05T04:41:55.069Z,100943.73
2023-05-05T04:44:23.628Z,100944.73
2023-05-05T04:46:51.970Z,100950.34
2023-05-05T04:49:20.372Z,100951.09
2023-05-05T04:51:48.720Z,100948.09
2023-05-05T04:54:17.247Z,100955.30
2023-05-05T04:56:45.503Z,100962.44
2023-05-05T04:59:14.934Z,100964.92
2023-05-05T05:01:43.286Z,100969.65
2023-05-05T05:04:11.856Z,100972.06
2023-05-05T05:06:40.525Z,100970.66
2023-05-05T05:09:11.170Z,100972.54
2023-05-05T05:11:39.534Z,100975.10
2023-05-05T05:14:08.221Z,100977.63
2023-05-05T05:16:37.771Z,100978.77
2023-05-05T05:19:06.566Z,100985.89
2023-05-05T05:21:34.960Z,100988.49
2023-05-05T05:24:03.313Z,100987.51
2023-05-05T05:26:31.742Z,100985.17
2023-05-05T05:29:00.173Z,100990.59
2023-05-05T05:31:28.861Z,100989.52
2023-05-05T05:34:01.188Z,100988.77
2023-05-05T05:36:32.040Z,100987.61
2023-05-05T05:39:07.468Z,100992.39
2023-05-05T05:41:36.324Z,100997.10
2023-05-05T05:44:26.221Z,100998.71
2023-05-05T05:46:57.804Z,100999.94
2023-05-05T05:49:26.470Z,101003.64
2023-05-05T05:51:55.213Z,101002.64
2023-05-05T05:54:25.581Z,101003.91
2023-05-05T05:56:56.170Z,101002.43
2023-05-05T05:59:25.387Z,100999.33
2023-05-05T06:01:59.621Z,101001.09
2023-05-05T06:04:28.976Z,100998.02
2023-05-05T06:06:57.906Z,100997.34
2023-05-05T06:09:26.582Z,100997.02
2023-05-05T06:12:04.107Z,101000.69
2023-05-05T06:14:42.008Z,100999.12
2023-05-05T06:17:11.265Z,101000.46
2023-05-05T06:19:41.644Z,100997.04
2023-05-05T06:22:11.960Z,100997.48
2023-05-05T06:24:40.592Z,100999.17
2023-05-05T06:27:09.129Z,100998.19
2023-05-05T06:29:37.688Z,100998.30
2023-05-05T06:32:08.726Z,101000.19
2023-05-05T06:34:43.599Z,101001.81
2023-05-05T06:37:12.556Z,101000.38
2023-05-05T06:39:44.926Z,101000.36
2023-05-05T06:42:13.412Z,101005.08
2023-05-05T06:44:43.955Z,101002.29
2023-05-05T06:47:13.078Z,101001.27
2023-05-05T06:49:41.827Z,101002.81
2023-05-05T06:52:11.116Z,101000.92
2023-05-05T06:55:13.745Z,101002.02
2023-05-05T06:58:04.693Z,101004.48
2023-05-05T07:00:36.754Z,101005.86
2023-05-05T07:03:17.519Z,101010.52
2023-05-05T07:05:48.306Z,101007.73
2023-05-05T07:08:19.266Z,101007.31
2023-05-05T07:11:03.868Z,101009.60
2023-05-05T07:13:33.629Z,101010.13
2023-05-05T07:16:04.023Z,101006.13
2023-05-05T07:18:33.050Z,101008.80
2023-05-05T07:21:05.177Z,101009.15
2023-05-05T07:23:34.664Z,101012.94
2023-05-05T07:26:03.244Z,101009.83
2023-05-05T07:28:34.959Z,101006.66
2023-05-05T07:31:03.972Z,101006.50
2023-05-05T07:34:10.125Z,101006.48
2023-05-05T07:44:53.346Z,101009.24
2023-05-05T07:48:09.411Z,101015.34
2023-05-05T07:52:00.852Z,101014.47
2023-05-05T07:57:49.238Z,101007.36
2023-05-05T08:00:24.880Z,101008.20
2023-05-05T08:02:54.968Z,101012.10
2023-05-05T08:05:55.560Z,101005.55
2023-05-05T08:08:51.252Z,101001.95
2023-05-05T08:11:58.964Z,101002.57
2023-05-05T08:15:19.158Z,101004.26
2023-05-05T08:17:59.684Z,101005.98
2023-05-05T08:20:55.192Z,101007.89
2023-05-05T08:31:54.666Z,101015.62
2023-05-05T08:34:41.689Z,101011.52
2023-05-05T08:37:31.176Z,101009.50
2023-05-05T08:41:09.985Z,101009.33
2023-05-05T08:43:56.500Z,101006.63
2023-05-05T08:46:29.504Z,101007.14
2023-05-05T08:49:04.109Z,101007.41
2023-05-05T08:51:43.655Z,101008.23
2023-05-05T08:54:24.575Z,101008.55
2023-05-05T08:56:59.665Z,101011.89
2023-05-05T08:59:30.791Z,101009.33
2023-05-05T09:01:59.614Z,101001.45
2023-05-05T09:04:30.441Z,101003.35
2023-05-05T09:07:04.350Z,101006.58
2023-05-05T09:09:35.833Z,101002.77
2023-05-05T09:12:08.853Z,101002.71
2023-05-05T09:17:28.673Z,100997.42
2023-05-05T09:20:16.448Z,100999.34
2023-05-05T09:26:19.546Z,100996.30
2023-05-05T09:29:31.324Z,100998.70
2023-05-05T09:32:17.501Z,100998.31
2023-05-05T09:35:15.512Z,100999.79
2023-05-05T09:37:45.311Z,101002.02
2023-05-05T09:40:22.192Z,101003.75
2023-05-05T09:43:39.815Z,100997.90
2023-05-05T09:46:19.083Z,101000.30
2023-05-05T09:48:57.055Z,101004.92
2023-05-05T09:51:30.391Z,101005.70
2023-05-05T09:53:59.021Z,101004.18
2023-05-05T10:02:50.276Z,101002.66
2023-05-05T10:05:23.570Z,101005.84
2023-05-05T10:08:14.239Z,100999.34
2023-05-05T10:10:53.376Z,100998.48
2023-05-05T10:13:24.849Z,100993.82
2023-05-05T10:16:00.880Z,100988.28
2023-05-05T10:18:37.305Z,100987.98
2023-05-05T10:21:07.233Z,100995.61
2023-05-05T10:23:51.967Z,100994.75
2023-05-05T10:26:45.062Z,100990.90
2023-05-05T10:29:44.725Z,100984.05
2023-05-05T10:32:56.883Z,100990.41
2023-05-05T10:35:36.321Z,100991.41
2023-05-05T10:38:09.517Z,100991.19
2023-05-05T10:40:45.731Z,100995.01
2023-05-05T10:43:37.335Z,100990.90
2023-05-05T10:46:08.227Z,100990.10
2023-05-05T10:48:52.467Z,100990.95
2023-05-05T10:51:43.128Z,100984.08
2023-05-05T10:54:38.364Z,100983.04
2023-05-05T10:57:10.553Z,100982.77
2023-05-05T10:59:41.526Z,100985.07
2023-05-05T11:02:30.436Z,100986.22
2023-05-05T11:05:06.380Z,100992.56
2023-05-05T11:07:36.191Z,100988.52
2023-05-05T11:10:09.522Z,100986.75
2023-05-05T11:13:03.056Z,100990.16
2023-05-05T11:15:31.991Z,100987.04
2023-05-05T11:18:07.507Z,100983.81
2023-05-05T11:20:40.530Z,100984.81
2023-05-05T11:23:13.351Z,100983.62
2023-05-05T11:25:44.645Z,100978.60
2023-05-05T11:28:18.388Z,100978.07
2023-05-05T11:30:59.631Z,100974.50
2023-05-05T11:33:39.949Z,100978.60
2023-05-05T11:36:31.758Z,100978.92
2023-05-05T11:39:23.704Z,100983.64
2023-05-05T11:42:22.798Z,100981.32
2023-05-05T11:44:55.222Z,100981.93
2023-05-05T11:47:23.497Z,100978.71
2023-05-05T11:49:51.898Z,100978.85
2023-05-05T11:52:20.262Z,100977.91
2023-05-05T11:54:49.248Z,100978.51
2023-05-05T11:57:21.473Z,100978.24
2023-05-05T11:59:57.127Z,100977.27
2023-05-05T12:02:28.113Z,100977.95
2023-05-05T12:04:59.127Z,100980.30
2023-05-05T12:07:32.215Z,100981.52
2023-05-05T12:10:01.610Z,100974.75
2023-05-05T12:12:38.379Z,100978.02
2023-05-05T12:15:08.180Z,100977.95
2023-05-05T12:17:42.884Z,100977.88
2023-05-05T12:20:12.914Z,100977.23
2023-05-05T12:22:41.751Z,100978.89
2023-05-05T12:25:10.790Z,100980.37
2023-05-05T12:27:39.379Z,100979.77
2023-05-05T12:30:21.079Z,100983.35
2023-05-05T12:32:49.405Z,100982.59
2023-05-05T12:35:18.201Z,100983.16
2023-05-05T12:37:46.626Z,100985.12
2023-05-05T12:40:49.997Z,100983.04
2023-05-05T12:43:26.826Z,100982.55
2023-05-05T12:46:07.531Z,100981.83
2023-05-05T12:48:40.783Z,100984.77
2023-05-05T12:51:24.523Z,100980.30
2023-05-05T12:54:10.217Z,100985.00
2023-05-05T12:56:42.965Z,100986.80
2023-05-05T12:59:24.852Z,100990.34
2023-05-05T13:01:54.349Z,100984.99
2023-05-05T13:04:24.884Z,100986.12
2023-05-05T13:07:13.776Z,100984.37
2023-05-05T13:09:47.817Z,100987.64
2023-05-05T13:12:19.200Z,100992.27
2023-05-05T13:14:51.302Z,100998.21
2023-05-05T13:17:20.786Z,100992.67
2023-05-05T13:19:52.227Z,100993.45
2023-05-05T13:22:21.146Z,100987.73
2023-05-05T13:24:54.372Z,100986.88
2023-05-05T13:27:26.149Z,100982.66
2023-05-05T13:29:58.906Z,100986.03
2023-05-05T13:32:28.040Z,100986.75
2023-05-05T13:34:56.984Z,100986.28
2023-05-05T13:37:27.281Z,100985.30
2023-05-05T13:40:02.236Z,100983.46
2023-05-05T13:42:31.610Z,100981.36
2023-05-05T13:45:02.006Z,100981.30
2023-05-05T13:47:32.152Z,100977.27
2023-05-05T13:57:11.461Z,100981.82
2023-05-05T13:59:41.326Z,100977.93
2023-05-05T14:02:10.066Z,100982.21
2023-05-05T14:04:38.602Z,100979.16
2023-05-05T14:07:07.008Z,100976.70
2023-05-05T14:09:35.294Z,100979.23
2023-05-05T14:12:03.894Z,100978.20
2023-05-05T14:14:32.292Z,100975.41
2023-05-05T14:17:00.724Z,100976.39
2023-05-05T14:19:29.245Z,100980.48
2023-05-05T14:21:57.848Z,100982.98
2023-05-05T14:24:26.316Z,100979.17
2023-05-05T14:26:54.627Z,100992.17
2023-05-05T14:29:22.972Z,100994.88
2023-05-05T14:31:51.340Z,100992.66
2023-05-05T14:34:19.782Z,100987.95
2023-05-05T14:36:49.862Z,100986.36
2023-05-05T14:39:19.122Z,100987.53
2023-05-05T14:41:52.492Z,100987.28
2023-05-05T14:44:20.864Z,100985.27
2023-05-05T14:46:51.044Z,100986.52
2023-05-05T14:49:19.549Z,100979.73
2023-05-05T14:51:48.030Z,100989.27
2023-05-05T14:54:27.432Z,100992.62
2023-05-05T14:56:57.357Z,100991.89
2023-05-05T14:59:26.538Z,100995.03
2023-05-05T15:02:02.050Z,100995.14
2023-05-05T15:04:30.453Z,100997.66
2023-05-05T15:06:58.796Z,101002.30
2023-05-05T15:09:27.215Z,101003.02
2023-05-05T15:11:55.628Z,101007.85
2023-05-05T15:14:23.932Z,101007.75
2023-05-05T15:16:52.778Z,101003.66
2023-05-05T15:19:21.053Z,101002.65
2023-05-05T15:21:53.563Z,101000.14
2023-05-05T15:24:22.154Z,101005.24
2023-05-05T15:26:50.488Z,101007.38
2023-05-05T15:29:18.926Z,101008.19
2023-05-05T15:31:47.319Z,101010.69
2023-05-05T15:34:15.733Z,101009.73
2023-05-05T15:36:44.071Z,101012.36
2023-05-05T15:39:12.483Z,101016.67
2023-05-05T15:41:40.884Z,101018.45
2023-05-05T15:44:12.542Z,101020.17
2023-05-05T17:01:35.320Z,101013.05
2023-05-05T17:04:07.030Z,101013.39
2023-05-05T17:06:35.798Z,101016.69
2023-05-05T17:09:06.709Z,101017.61
2023-05-05T17:11:36.289Z,101018.65
2023-05-05T17:14:07.513Z,101021.36
2023-05-05T17:16:36.157Z,101015.27
2023-05-05T17:19:07.045Z,101015.95
2023-05-05T17:21:35.475Z,101014.02
2023-05-05T17:24:04.186Z,101022.05
2023-05-05T17:26:32.944Z,101024.63
2023-05-05T17:29:01.713Z,101023.98
2023-05-05T17:31:30.428Z,101023.95
2023-05-05T17:33:59.164Z,101023.09
2023-05-05T17:36:27.845Z,101027.34
2023-05-05T17:38:57.004Z,101030.12
2023-05-05T17:41:29.807Z,101031.95
2023-05-05T17:44:00.691Z,101031.80
2023-05-05T17:46:30.677Z,101034.64
2023-05-05T17:49:00.770Z,101040.90
2023-05-05T17:51:29.695Z,101043.09
2023-05-05T17:54:00.816Z,101053.27
2023-05-05T17:56:29.246Z,101053.20
2023-05-05T17:58:58.342Z,101053.38
2023-05-05T18:01:27.735Z,101058.47
2023-05-05T18:03:58.491Z,101057.09
2023-05-05T18:06:28.398Z,101057.98
2023-05-05T18:08:56.767Z,101061.09
2023-05-05T18:11:28.194Z,101062.98
2023-05-05T18:13:56.824Z,101064.05
2023-05-05T18:16:25.948Z,101066.23
2023-05-05T18:18:54.557Z,101067.16
2023-05-05T18:21:23.245Z,101067.37
2023-05-05T18:23:57.285Z,101071.03
2023-05-05T18:26:30.729Z,101073.59
2023-05-05T18:28:58.955Z,101072.51
2023-05-05T18:31:30.748Z,101076.63
2023-05-05T18:33:59.331Z,101078.38
2023-05-05T18:36:28.306Z,101078.92
2023-05-05T18:39:14.227Z,101078.78
2023-05-05T18:41:43.104Z,101077.80
2023-05-05T18:44:15.286Z,101083.90
2023-05-05T18:46:54.631Z,101085.74
2023-05-05T18:49:26.777Z,101085.13
2023-05-05T18:51:58.138Z,101085.13
2023-05-05T18:54:27.625Z,101084.30
2023-05-05T18:57:04.044Z,101088.93
2023-05-05T18:59:37.313Z,101086.06
2023-05-05T19:02:08.484Z,101084.32
2023-05-05T19:04:38.226Z,101083.56
2023-05-05T19:07:09.632Z,101082.98
2023-05-05T19:09:55.883Z,101082.67
2023-05-05T19:12:24.910Z,101084.80
2023-05-05T19:14:55.270Z,101083.69
2023-05-05T19:17:24.165Z,101084.65
2023-05-05T19:19:55.179Z,101087.95
2023-05-05T19:22:24.744Z,101089.79
2023-05-05T19:24:56.925Z,101088.61
2023-05-05T19:27:25.837Z,101086.01
2023-05-05T19:29:54.808Z,101087.94
2023-05-05T19:32:23.477Z,101087.48
2023-05-05T19:34:54.665Z,101086.30
2023-05-05T19:37:23.605Z,101083.43
2023-05-05T19:39:53.470Z,101088.41
2023-05-05T19:42:24.586Z,101088.84
2023-05-05T19:44:55.990Z,101089.33
2023-05-05T19:47:26.896Z,101087.85
2023-05-05T19:49:55.821Z,101091.70
2023-05-05T19:52:37.033Z,101092.91
2023-05-05T19:55:10.779Z,101092.98
2023-05-05T19:57:45.627Z,101093.24
2023-05-05T20:00:16.442Z,101091.78
2023-05-05T20:02:45.855Z,101090.98
2023-05-05T20:05:16.670Z,101091.70
2023-05-05T20:07:50.575Z,101087.45
2023-05-05T20:10:20.296Z,101090.25
2023-05-05T20:12:49.508Z,101085.25
2023-05-05T20:15:21.191Z,101082.54
2023-05-05T20:17:49.924Z,101084.52
2023-05-05T20:20:24.088Z,101085.74
2023-05-05T20:22:53.833Z,101089.29
2023-05-05T20:25:22.744Z,101088.27
2023-05-05T20:27:51.700Z,101088.08
2023-05-05T20:30:21.664Z,101089.77
2023-05-05T20:32:51.251Z,101091.08
2023-05-05T20:35:20.589Z,101092.37
2023-05-05T20:37:49.124Z,101088.17
2023-05-05T20:40:22.663Z,101084.12
2023-05-05T20:42:51.190Z,101083.86
2023-05-05T20:45:20.181Z,101083.27
2023-05-05T20:47:49.382Z,101085.00
2023-05-05T20:50:22.696Z,101084.27
2023-05-05T20:52:51.754Z,101086.80
2023-05-05T20:55:20.064Z,101089.05
2023-05-05T20:57:48.370Z,101086.61
2023-05-05T21:00:16.899Z,101087.45
2023-05-05T21:02:45.554Z,101089.30
2023-05-05T21:05:14.606Z,101083.65
2023-05-05T21:07:42.879Z,101084.41
2023-05-05T21:10:11.930Z,101085.60
2023-05-05T21:12:44.336Z,101084.06
2023-05-05T21:15:17.709Z,101079.53
2023-05-05T21:17:58.709Z,101082.27
2023-05-05T21:20:32.817Z,101082.11
2023-05-05T21:23:15.212Z,101080.58
2023-05-05T21:25:52.376Z,101082.56
2023-05-05T21:28:21.951Z,101081.70
2023-05-05T21:31:20.555Z,101081.52
2023-05-05T21:33:52.742Z,101085.13
2023-05-05T21:36:22.287Z,101086.39
2023-05-05T21:38:58.374Z,101087.79
2023-05-05T21:41:32.117Z,101088.75
2023-05-05T21:44:02.465Z,101090.40
2023-05-05T21:46:33.083Z,101092.36
2023-05-05T21:49:15.630Z,101092.45
2023-05-05T21:51:47.079Z,101095.50
2023-05-05T21:54:19.754Z,101094.61
2023-05-05T21:56:48.888Z,101096.30
2023-05-05T21:59:18.491Z,101097.71
2023-05-05T22:01:50.556Z,101099.73
2023-05-05T22:04:24.048Z,101092.48
2023-05-05T22:06:56.811Z,101090.33
2023-05-05T22:09:25.960Z,101092.98
2023-05-05T22:11:55.058Z,101086.71
2023-05-05T22:14:23.370Z,101086.48
2023-05-05T22:16:51.629Z,101084.61
2023-05-05T22:19:19.838Z,101083.00
2023-05-05T22:21:48.099Z,101081.30
2023-05-05T22:28:28.364Z,101077.69
2023-05-05T22:30:57.167Z,101081.91
2023-05-05T22:33:25.438Z,101080.18
2023-05-05T22:35:53.830Z,101078.10
2023-05-05T22:38:22.126Z,101071.73
2023-05-05T22:40:50.416Z,101067.73
2023-05-05T22:43:18.696Z,101076.48
2023-05-05T22:45:47.297Z,101077.33
2023-05-05T22:48:15.645Z,101077.25
2023-05-05T22:50:44.031Z,101072.41
2023-05-05T22:53:12.335Z,101071.73
2023-05-05T22:55:40.708Z,101070.87
2023-05-05T22:58:08.962Z,101067.11
2023-05-05T23:00:37.231Z,101067.82
2023-05-05T23:03:05.663Z,101062.81
2023-05-05T23:05:34.708Z,101061.19
2023-05-05T23:08:03.179Z,101065.98
2023-05-05T23:10:31.444Z,101068.59
2023-05-05T23:12:59.844Z,101070.84
2023-05-05T23:15:28.890Z,101066.09
2023-05-05T23:17:57.347Z,101063.20
2023-05-05T23:20:25.857Z,101061.54
2023-05-05T23:27:19.448Z,101056.00
2023-05-05T23:29:47.727Z,101053.20
2023-05-05T23:32:15.985Z,101056.48
2023-05-05T23:34:44.287Z,101061.41
2023-05-05T23:37:14.685Z,101061.67
2023-05-05T23:39:43.007Z,101060.07
2023-05-05T23:42:11.316Z,101059.66
2023-05-05T23:44:39.620Z,101052.69
2023-05-05T23:47:07.836Z,101055.85
2023-05-05T23:49:36.310Z,101059.63
2023-05-05T23:52:04.805Z,101056.43
2023-05-05T23:54:33.194Z,101059.56
2023-05-05T23:57:02.757Z,101064.42
2023-05-05T23:59:31.019Z,101067.46
